Andover, Massachusetts
Current Conditions -  °F | °C
As of 11:54 PM on Saturday 25 Oct 2014 (Local Time) from KLWM Reporting Station
Few Clouds Few Clouds  
Wind Chill: 54°   Ceiling: Unl
Heat Index: 54°   Visibility: 10mi
Dew Point: 45°   Wind: 8mph
Humidity: 72%   Direction: 210°SSW
Pressure: 29.5"   Gusts: NA
Location:  42.65°N, 71.14°W
Report Text: KLWM 260354Z AUTO 21007KT 10SM FEW090 FEW120 12/07 A2950 RMK AO2 SLP989 T01220072
Loading
Personal Weather Stations






























Interactive Weather Map New forecast layout! Learn more

10-Day Weather Forecast

Advertisements
Track Severe Weather on mobile